Portada
METAR-TAF:

METAR-TAF

Aeroports :

Karachi, Pakistan

latitud: 24-54N, longitud: 067-08E, altitud: 21 m

Observació

L'informe es va fer fa 27 minuts, a les 07:00 UTC
Vent 8 kt del Sud-Oest
Temperatura 31°C
Humitat 63%
Pressió 1004 hPa
Visibilitat: 6000 m
Cel ennuvolat a una alçada de 2000 ft

METAR: OPKC 250700Z 22008KT 6000 BKN020 31/23 Q1004 NOSIG

Hora: 12:27 (07:27 UTC)

Pronòstic

L'informe es va fer fa 3 hores i 27 minuts, a les 04:00 UTC
Pronòstic vàlid del 25 a les 06 UTC al 26 a les 12 UTC
Vent 8 kt del Oest/Sud-Oest amb ràfegues de 18 kt
Visibilitat: 6000 m
Cel ennuvolat a una alçada de 2000 ft

TAF: OPKC 250400Z 2506/2612 24008G18KT 6000 BKN020

Observacions i pronòstics meteorològics de més de 4000 aeroports (METAR i TAF).

Les estacions disponibles són els punts grocs i vermells al mapa.

Posi el ratolí al punt desitjat per veure el nom de l'estació.

Feu clic per veure les observacions i els pronòstics meteorològics.

Per canviar el mapa: feu clic els botons verds amb una creu de color negre per apropar; al botó verd amb un guió per allunyar la imatge; o en les fletxes verdes per a mapes adjacents.


METAR-TAF: